createdAt,value
2023-03-19T00:01:07.901Z,110.50
2023-03-19T00:03:43.736Z,115.00
2023-03-19T00:06:12.280Z,120.20
2023-03-19T00:08:40.401Z,120.10
2023-03-19T00:11:11.226Z,122.70
2023-03-19T00:13:40.078Z,149.60
2023-03-19T00:16:08.529Z,126.70
2023-03-19T00:18:36.524Z,122.10
2023-03-19T00:21:05.449Z,121.40
2023-03-19T00:23:34.091Z,104.50
2023-03-19T00:26:03.582Z,97.50
2023-03-19T00:28:31.691Z,96.30
2023-03-19T00:31:15.405Z,98.00
2023-03-19T00:33:44.035Z,83.20
2023-03-19T00:36:13.183Z,81.00
2023-03-19T00:38:41.313Z,82.00
2023-03-19T00:41:09.730Z,81.80
2023-03-19T00:43:37.788Z,83.20
2023-03-19T00:46:06.535Z,86.80
2023-03-19T00:48:34.638Z,89.50
2023-03-19T00:51:09.704Z,94.70
2023-03-19T00:53:44.869Z,94.50
2023-03-19T00:56:15.605Z,97.80
2023-03-19T00:58:43.655Z,88.80
2023-03-19T01:01:16.307Z,89.80
2023-03-19T01:06:14.192Z,68.60
2023-03-19T01:08:42.332Z,65.90
2023-03-19T01:11:14.840Z,63.70
2023-03-19T01:13:43.404Z,59.20
2023-03-19T01:16:11.576Z,55.10
2023-03-19T01:18:39.938Z,49.10
2023-03-19T01:21:08.613Z,56.20
2023-03-19T01:23:36.735Z,62.30
2023-03-19T01:26:05.260Z,65.70
2023-03-19T01:28:33.549Z,68.00
2023-03-19T01:31:06.909Z,75.40
2023-03-19T01:33:35.208Z,81.20
2023-03-19T01:36:05.155Z,79.70
2023-03-19T01:38:33.158Z,76.70
2023-03-19T01:41:01.645Z,90.20
2023-03-19T01:43:32.818Z,92.90
2023-03-19T01:46:07.610Z,85.30
2023-03-19T01:48:50.525Z,96.70
2023-03-19T01:51:24.995Z,104.40
2023-03-19T01:53:59.447Z,90.20
2023-03-19T01:56:33.391Z,78.00
2023-03-19T01:59:11.967Z,70.70
2023-03-19T02:01:54.135Z,66.90
2023-03-19T02:04:23.147Z,65.20
2023-03-19T02:06:51.951Z,57.40
2023-03-19T02:09:20.543Z,56.40
2023-03-19T02:11:48.733Z,52.30
2023-03-19T02:14:16.996Z,55.10
2023-03-19T02:16:45.070Z,64.10
2023-03-19T02:19:18.004Z,63.00
2023-03-19T02:21:45.924Z,62.70
2023-03-19T02:24:33.041Z,57.30
2023-03-19T02:27:01.598Z,55.70
2023-03-19T02:29:29.732Z,50.10
2023-03-19T02:31:57.724Z,56.10
2023-03-19T02:34:25.688Z,62.40
2023-03-19T02:37:15.337Z,89.50
2023-03-19T02:40:04.850Z,80.30
2023-03-19T02:42:32.848Z,79.00
2023-03-19T02:45:01.035Z,73.90
2023-03-19T02:47:29.114Z,74.90
2023-03-19T02:49:57.279Z,74.10
2023-03-19T02:52:25.952Z,53.70
2023-03-19T02:54:53.869Z,57.00
2023-03-19T02:57:21.905Z,60.30
2023-03-19T02:59:49.922Z,62.70
2023-03-19T03:02:18.088Z,50.70
2023-03-19T03:04:46.824Z,47.00
2023-03-19T03:07:14.964Z,42.80
2023-03-19T03:09:42.900Z,48.30
2023-03-19T03:12:11.329Z,51.50
2023-03-19T03:14:40.786Z,41.40
2023-03-19T03:17:08.988Z,44.00
2023-03-19T03:19:36.992Z,45.20
2023-03-19T03:22:05.811Z,47.70
2023-03-19T03:24:33.965Z,52.00
2023-03-19T03:27:02.133Z,51.30
2023-03-19T03:29:30.207Z,49.00
2023-03-19T03:31:58.443Z,50.40
2023-03-19T03:34:26.735Z,48.90
2023-03-19T03:36:54.763Z,48.40
2023-03-19T03:39:23.263Z,47.30
2023-03-19T03:41:51.699Z,48.30
2023-03-19T03:44:19.829Z,48.60
2023-03-19T03:46:48.210Z,47.20
2023-03-19T03:49:16.304Z,49.40
2023-03-19T03:51:44.729Z,51.20
2023-03-19T03:54:12.885Z,49.00
2023-03-19T03:56:42.168Z,41.30
2023-03-19T03:59:10.244Z,41.60
2023-03-19T04:01:38.451Z,42.80
2023-03-19T04:04:06.855Z,42.10
2023-03-19T04:06:35.192Z,44.50
2023-03-19T04:09:03.500Z,47.40
2023-03-19T04:11:31.503Z,47.90
2023-03-19T04:13:59.909Z,49.50
2023-03-19T04:16:28.769Z,47.40
2023-03-19T04:18:56.957Z,52.60
2023-03-19T04:21:26.318Z,48.00
2023-03-19T04:23:54.450Z,50.60
2023-03-19T04:26:22.503Z,50.60
2023-03-19T04:28:50.851Z,49.00
2023-03-19T04:31:18.992Z,49.90
2023-03-19T04:33:46.986Z,51.90
2023-03-19T04:36:15.032Z,49.50
2023-03-19T04:38:43.410Z,50.90
2023-03-19T04:41:11.387Z,50.90
2023-03-19T04:43:39.531Z,54.00
2023-03-19T04:46:08.384Z,53.40
2023-03-19T04:48:37.846Z,49.90
2023-03-19T04:51:08.750Z,50.30
2023-03-19T04:53:38.062Z,48.00
2023-03-19T04:56:08.486Z,50.30
2023-03-19T04:58:36.617Z,49.30
2023-03-19T05:01:05.616Z,53.50
2023-03-19T05:03:33.894Z,51.80
2023-03-19T05:06:02.234Z,54.30
2023-03-19T05:08:30.408Z,54.60
2023-03-19T05:10:58.553Z,60.60
2023-03-19T05:13:26.757Z,67.30
2023-03-19T05:15:55.710Z,64.20
2023-03-19T05:18:23.915Z,63.00
2023-03-19T05:20:52.160Z,63.60
2023-03-19T05:23:20.352Z,51.60
2023-03-19T05:25:49.467Z,53.10
2023-03-19T05:28:18.952Z,49.30
2023-03-19T05:30:47.066Z,56.70
2023-03-19T05:33:15.160Z,71.90
2023-03-19T05:35:43.231Z,64.90
2023-03-19T05:38:11.969Z,68.90
2023-03-19T05:40:42.075Z,65.00
2023-03-19T05:43:11.228Z,65.60
2023-03-19T05:45:39.789Z,70.20
2023-03-19T05:48:09.124Z,64.20
2023-03-19T05:50:37.349Z,60.10
2023-03-19T05:53:05.393Z,55.50
2023-03-19T05:55:33.374Z,58.40
2023-03-19T05:58:01.629Z,61.30
2023-03-19T06:00:29.653Z,60.30
2023-03-19T06:02:57.692Z,62.50
2023-03-19T06:05:26.286Z,58.00
2023-03-19T06:07:54.257Z,55.60
2023-03-19T06:10:22.315Z,55.10
2023-03-19T06:12:50.491Z,55.20
2023-03-19T06:15:18.472Z,52.10
2023-03-19T06:17:46.764Z,48.60
2023-03-19T06:20:14.881Z,50.60
2023-03-19T06:22:43.761Z,61.30
2023-03-19T06:25:12.130Z,75.60
2023-03-19T06:27:40.346Z,71.20
2023-03-19T06:30:10.705Z,61.90
2023-03-19T06:32:38.843Z,49.80
2023-03-19T06:35:07.209Z,46.30
2023-03-19T06:37:38.105Z,46.70
2023-03-19T06:40:06.861Z,43.50
2023-03-19T06:42:35.064Z,43.00
2023-03-19T06:45:03.975Z,41.10
2023-03-19T06:47:34.472Z,43.80
2023-03-19T06:50:05.143Z,42.50
2023-03-19T06:52:33.514Z,42.70
2023-03-19T06:55:01.994Z,38.20
2023-03-19T06:57:29.966Z,38.10
2023-03-19T06:59:58.463Z,37.80
2023-03-19T07:02:27.522Z,34.60
2023-03-19T07:04:56.009Z,34.90
2023-03-19T07:07:24.270Z,32.20
2023-03-19T07:09:52.602Z,31.90
2023-03-19T07:12:21.846Z,34.80
2023-03-19T07:14:51.099Z,33.90
2023-03-19T07:17:19.568Z,32.50
2023-03-19T07:19:48.403Z,30.70
2023-03-19T07:22:17.399Z,31.80
2023-03-19T07:24:45.767Z,32.50
2023-03-19T07:27:15.207Z,32.30
2023-03-19T07:29:43.487Z,30.70
2023-03-19T07:32:12.585Z,30.80
2023-03-19T07:34:41.457Z,29.50
2023-03-19T07:37:11.078Z,30.00
2023-03-19T07:39:39.743Z,28.90
2023-03-19T07:42:09.306Z,29.80
2023-03-19T07:44:38.371Z,28.70
2023-03-19T07:47:19.009Z,29.60
2023-03-19T07:49:58.196Z,30.00
2023-03-19T07:52:28.582Z,30.90
2023-03-19T07:54:58.056Z,30.90
2023-03-19T07:57:28.446Z,30.70
2023-03-19T07:59:57.605Z,31.10
2023-03-19T08:02:29.155Z,28.90
2023-03-19T08:05:04.648Z,26.30
2023-03-19T08:07:37.112Z,27.90
2023-03-19T08:10:12.545Z,25.50
2023-03-19T08:12:42.770Z,27.50
2023-03-19T08:15:11.911Z,25.70
2023-03-19T08:18:56.127Z,24.50
2023-03-19T08:21:24.822Z,26.00
2023-03-19T08:23:53.209Z,24.90
2023-03-19T08:26:21.796Z,24.20
2023-03-19T08:28:50.051Z,22.50
2023-03-19T08:31:18.086Z,22.40
2023-03-19T08:33:46.377Z,21.70
2023-03-19T08:36:14.716Z,22.20
2023-03-19T08:38:43.855Z,21.00
2023-03-19T08:41:12.506Z,20.40
2023-03-19T08:43:41.068Z,19.50
2023-03-19T08:46:09.935Z,19.00
2023-03-19T08:48:44.843Z,19.30
2023-03-19T09:04:57.218Z,15.80
2023-03-19T09:07:25.348Z,15.20
2023-03-19T09:09:53.453Z,14.40
2023-03-19T09:12:21.388Z,14.70
2023-03-19T09:14:49.765Z,14.20
2023-03-19T09:17:18.463Z,13.80
2023-03-19T09:19:49.755Z,14.80
2023-03-19T09:22:18.143Z,15.00
2023-03-19T09:24:46.295Z,13.90
2023-03-19T09:27:14.493Z,14.20
2023-03-19T09:29:42.729Z,14.20
2023-03-19T09:32:10.942Z,12.90
2023-03-19T09:34:39.082Z,13.90
2023-03-19T09:37:07.428Z,14.50
2023-03-19T09:39:35.614Z,14.00
2023-03-19T09:42:19.134Z,14.30
2023-03-19T09:44:47.607Z,14.50
2023-03-19T09:47:34.439Z,13.60
2023-03-19T09:50:24.283Z,14.00
2023-03-19T09:53:24.821Z,13.10
2023-03-19T09:55:54.239Z,13.70
2023-03-19T09:58:34.455Z,13.60
2023-03-19T10:01:04.458Z,13.50
2023-03-19T10:04:09.692Z,13.20
2023-03-19T10:06:41.133Z,13.10
2023-03-19T10:09:39.808Z,13.20
2023-03-19T10:13:10.458Z,11.70
2023-03-19T10:15:39.683Z,13.30
2023-03-19T10:18:22.654Z,12.80
2023-03-19T10:21:10.416Z,12.60
2023-03-19T10:23:48.436Z,12.90
2023-03-19T10:26:20.793Z,12.70
2023-03-19T10:31:45.537Z,12.30
2023-03-19T10:34:29.734Z,12.20
2023-03-19T10:37:37.749Z,13.60
2023-03-19T10:40:21.938Z,11.70
2023-03-19T10:43:17.211Z,12.60
2023-03-19T10:45:46.676Z,13.60
2023-03-19T10:48:18.348Z,12.90
2023-03-19T10:51:03.745Z,13.00
2023-03-19T10:53:39.975Z,13.30
2023-03-19T10:56:23.383Z,13.40
2023-03-19T10:59:03.441Z,13.00
2023-03-19T11:01:39.292Z,13.80
2023-03-19T11:04:26.052Z,15.90
2023-03-19T11:06:57.382Z,15.40
2023-03-19T11:09:37.156Z,17.30
2023-03-19T11:12:20.979Z,14.60
2023-03-19T11:14:53.817Z,14.80
2023-03-19T11:17:36.474Z,15.10
2023-03-19T11:20:11.636Z,15.60
2023-03-19T11:22:39.997Z,14.40
2023-03-19T11:25:42.263Z,14.50
2023-03-19T11:28:14.976Z,14.10
2023-03-19T11:31:17.787Z,14.30
2023-03-19T11:33:55.316Z,14.60
2023-03-19T11:37:00.968Z,15.20
2023-03-19T11:39:57.653Z,14.80
2023-03-19T11:42:41.386Z,14.00
2023-03-19T11:45:57.016Z,15.00
2023-03-19T11:49:25.708Z,13.60
2023-03-19T11:52:19.224Z,14.40
2023-03-19T11:54:57.392Z,16.00
2023-03-19T11:58:05.902Z,14.80
2023-03-19T12:00:56.557Z,16.00
2023-03-19T12:03:43.063Z,15.10
2023-03-19T12:07:03.507Z,14.70
2023-03-19T12:09:34.447Z,18.70
2023-03-19T12:12:27.309Z,16.70
2023-03-19T12:22:20.973Z,15.00
2023-03-19T12:25:36.668Z,14.70
2023-03-19T12:28:37.393Z,14.40
2023-03-19T12:32:05.916Z,14.80
2023-03-19T12:34:45.643Z,14.50
2023-03-19T12:37:18.869Z,15.40
2023-03-19T12:40:17.519Z,13.70
2023-03-19T12:42:47.981Z,14.80
2023-03-19T12:45:38.982Z,13.90
2023-03-19T12:48:12.523Z,14.60
2023-03-19T12:50:44.836Z,14.40
2023-03-19T12:53:51.828Z,14.20
2023-03-19T12:56:48.833Z,15.30
2023-03-19T12:59:53.040Z,14.20
2023-03-19T13:02:33.633Z,15.70
2023-03-19T13:05:40.052Z,16.50
2023-03-19T13:08:34.264Z,14.40
2023-03-19T13:11:11.730Z,14.90
2023-03-19T13:14:23.021Z,14.90
2023-03-19T13:17:22.532Z,15.30
2023-03-19T13:19:54.362Z,15.10
2023-03-19T13:22:27.588Z,15.40
2023-03-19T13:24:57.324Z,15.30
2023-03-19T13:27:36.460Z,15.50
2023-03-19T13:30:10.662Z,15.10
2023-03-19T13:32:48.396Z,13.50
2023-03-19T13:35:41.128Z,13.80
2023-03-19T13:38:40.821Z,14.60
2023-03-19T13:41:34.887Z,14.40
2023-03-19T13:44:27.390Z,18.10
2023-03-19T13:46:55.669Z,23.50
2023-03-19T13:49:35.906Z,20.40
2023-03-19T13:52:10.137Z,18.80
2023-03-19T13:54:41.291Z,16.70
2023-03-19T13:57:17.155Z,18.70
2023-03-19T13:59:49.994Z,18.90
2023-03-19T14:02:29.178Z,15.60
2023-03-19T14:05:16.213Z,16.30
2023-03-19T14:07:53.030Z,15.00
2023-03-19T14:10:31.751Z,14.40
2023-03-19T14:13:20.047Z,14.80
2023-03-19T14:15:58.761Z,19.80
2023-03-19T14:18:29.949Z,15.70
2023-03-19T14:21:21.342Z,13.60
2023-03-19T14:23:55.592Z,14.30
2023-03-19T14:26:29.476Z,18.30
2023-03-19T14:29:07.447Z,18.10
2023-03-19T14:31:54.168Z,17.10
2023-03-19T14:34:32.743Z,17.30
2023-03-19T14:37:15.751Z,16.00
2023-03-19T14:39:46.074Z,24.00
2023-03-19T14:42:32.671Z,18.30
2023-03-19T14:45:25.986Z,15.60
2023-03-19T14:48:09.607Z,15.30
2023-03-19T14:51:06.733Z,15.50
2023-03-19T14:54:34.670Z,15.80
2023-03-19T14:57:27.486Z,16.10
2023-03-19T14:59:57.221Z,15.40
2023-03-19T15:02:39.797Z,14.30
2023-03-19T15:05:15.535Z,14.10
2023-03-19T15:07:52.612Z,15.60
2023-03-19T15:10:24.841Z,16.20
2023-03-19T15:13:32.999Z,20.60
2023-03-19T15:16:21.317Z,24.50
2023-03-19T15:18:51.171Z,23.40
2023-03-19T15:21:20.594Z,17.30
2023-03-19T15:23:49.299Z,15.50
2023-03-19T15:26:32.566Z,14.80
2023-03-19T15:29:00.964Z,15.20
2023-03-19T15:31:52.678Z,14.40
2023-03-19T15:34:31.965Z,13.60
2023-03-19T15:37:13.883Z,15.10
2023-03-19T15:39:51.948Z,15.30
2023-03-19T15:42:22.505Z,15.40
2023-03-19T15:45:12.656Z,14.20
2023-03-19T15:47:47.632Z,14.20
2023-03-19T15:50:26.441Z,13.70
2023-03-19T15:53:22.065Z,13.60
2023-03-19T15:55:53.169Z,13.20
2023-03-19T15:58:37.195Z,12.30
2023-03-19T16:01:09.793Z,12.70
2023-03-19T16:03:43.114Z,13.00
2023-03-19T16:06:31.803Z,13.60
2023-03-19T16:09:31.043Z,15.00
2023-03-19T16:12:01.766Z,15.90
2023-03-19T16:14:30.297Z,15.20
2023-03-19T16:17:18.040Z,16.00
2023-03-19T16:20:01.872Z,16.00
2023-03-19T16:22:32.644Z,27.20
2023-03-19T16:25:03.902Z,34.40
2023-03-19T16:27:40.277Z,33.90
2023-03-19T16:30:27.452Z,35.50
2023-03-19T16:33:06.940Z,33.20
2023-03-19T16:35:36.820Z,33.40
2023-03-19T16:38:25.089Z,33.70
2023-03-19T16:41:35.654Z,41.20
2023-03-19T16:44:31.494Z,38.60
2023-03-19T16:47:00.246Z,79.20
2023-03-19T16:49:28.286Z,63.50
2023-03-19T16:51:57.008Z,46.90
2023-03-19T16:54:26.413Z,36.00
2023-03-19T16:56:58.329Z,36.70
2023-03-19T16:59:30.467Z,21.20
2023-03-19T17:01:59.834Z,18.20
2023-03-19T17:04:28.873Z,16.40
2023-03-19T17:06:57.036Z,16.30
2023-03-19T17:09:26.614Z,18.50
2023-03-19T17:11:54.983Z,21.10
2023-03-19T17:14:23.370Z,20.70
2023-03-19T17:16:55.755Z,21.40
2023-03-19T17:19:32.229Z,20.40
2023-03-19T17:22:00.547Z,21.70
2023-03-19T17:24:35.419Z,32.00
2023-03-19T17:27:05.062Z,34.80
2023-03-19T17:29:33.893Z,41.80
2023-03-19T17:32:02.665Z,49.00
2023-03-19T17:34:38.830Z,42.20
2023-03-19T17:37:14.813Z,53.30
2023-03-19T17:39:46.307Z,62.40
2023-03-19T17:42:24.142Z,42.20
2023-03-19T17:44:52.705Z,46.10
2023-03-19T17:47:24.100Z,49.90
2023-03-19T17:49:53.943Z,45.20
2023-03-19T17:52:23.576Z,44.10
2023-03-19T17:55:02.703Z,39.40
2023-03-19T17:57:30.693Z,32.00
2023-03-19T17:59:58.958Z,29.60
2023-03-19T18:02:33.971Z,29.60
2023-03-19T18:05:04.893Z,30.30
2023-03-19T18:07:33.037Z,29.60
2023-03-19T18:10:01.522Z,29.70
2023-03-19T18:12:29.691Z,31.30
2023-03-19T18:14:59.023Z,34.20
2023-03-19T18:17:27.512Z,38.20
2023-03-19T18:19:55.804Z,41.70
2023-03-19T18:22:23.945Z,45.20
2023-03-19T18:24:52.564Z,48.30
2023-03-19T18:27:24.201Z,50.20
2023-03-19T18:29:52.273Z,52.60
2023-03-19T18:32:31.894Z,58.70
2023-03-19T18:35:00.310Z,57.90
2023-03-19T18:37:29.255Z,56.10
2023-03-19T18:39:57.357Z,54.10
2023-03-19T18:42:25.366Z,48.70
2023-03-19T18:44:53.387Z,44.00
2023-03-19T18:47:21.321Z,45.20
2023-03-19T18:49:50.101Z,44.80
2023-03-19T18:52:19.574Z,43.60
2023-03-19T18:54:47.942Z,40.60
2023-03-19T18:57:16.739Z,41.40
2023-03-19T18:59:44.836Z,48.80
2023-03-19T19:02:26.944Z,46.60
2023-03-19T19:04:55.204Z,43.80
2023-03-19T19:07:23.145Z,41.30
2023-03-19T19:09:51.257Z,42.60
2023-03-19T19:12:19.754Z,43.60
2023-03-19T19:14:48.186Z,45.90
2023-03-19T19:17:19.818Z,43.90
2023-03-19T19:19:47.760Z,46.40
2023-03-19T19:22:17.937Z,46.80
2023-03-19T19:24:46.307Z,47.40
2023-03-19T19:27:20.738Z,49.10
2023-03-19T19:29:49.291Z,49.60
2023-03-19T19:32:27.175Z,45.30
2023-03-19T19:34:55.814Z,43.40
2023-03-19T19:37:23.887Z,42.70
2023-03-19T19:39:52.150Z,44.70
2023-03-19T19:42:21.683Z,44.90
2023-03-19T19:44:53.874Z,43.30
2023-03-19T19:47:21.861Z,41.20
2023-03-19T19:49:49.789Z,35.50
2023-03-19T19:52:19.553Z,41.00
2023-03-19T19:54:47.745Z,35.20
2023-03-19T19:57:26.680Z,38.00
2023-03-19T19:59:55.653Z,36.50
2023-03-19T20:02:29.395Z,33.20
2023-03-19T20:04:58.676Z,32.90
2023-03-19T20:07:27.337Z,33.80
2023-03-19T20:09:55.746Z,32.70
2023-03-19T20:12:31.971Z,32.20
2023-03-19T20:15:00.516Z,33.50
2023-03-19T20:17:28.531Z,33.90
2023-03-19T20:19:56.458Z,31.90
2023-03-19T20:22:24.436Z,30.20
2023-03-19T20:24:52.442Z,30.30
2023-03-19T20:27:32.457Z,31.50
2023-03-19T20:30:00.377Z,30.00
2023-03-19T20:32:35.635Z,30.80
2023-03-19T20:35:07.330Z,26.80
2023-03-19T20:37:35.438Z,28.10
2023-03-19T20:40:03.706Z,33.40
2023-03-19T20:42:35.279Z,38.20
2023-03-19T20:45:03.688Z,45.30
2023-03-19T20:47:33.258Z,55.80
2023-03-19T20:50:02.065Z,61.80
2023-03-19T20:52:30.082Z,71.40
2023-03-19T20:54:58.808Z,76.50
2023-03-19T20:57:31.105Z,73.10
2023-03-19T21:00:03.415Z,77.80
2023-03-19T21:02:31.438Z,78.20
2023-03-19T21:05:00.110Z,78.00
2023-03-19T21:07:33.778Z,109.60
2023-03-19T21:10:32.316Z,106.00
2023-03-19T21:13:02.034Z,69.60
2023-03-19T21:15:30.135Z,66.30
2023-03-19T21:17:58.913Z,65.80
2023-03-19T21:20:32.140Z,57.40
2023-03-19T21:23:09.241Z,49.90
2023-03-19T21:25:38.297Z,35.80
2023-03-19T21:28:13.755Z,36.50
2023-03-19T21:30:44.483Z,37.60
2023-03-19T21:33:27.070Z,36.70
2023-03-19T21:35:56.589Z,33.80
2023-03-19T21:38:24.739Z,35.30
2023-03-19T21:40:57.975Z,32.60
2023-03-19T21:43:40.927Z,36.00
2023-03-19T21:48:57.291Z,41.00
2023-03-19T21:51:27.283Z,37.20
2023-03-19T21:53:55.361Z,37.00
2023-03-19T21:56:38.985Z,35.30
2023-03-19T21:59:17.119Z,37.40
2023-03-19T22:01:45.386Z,64.70
2023-03-19T22:04:13.591Z,84.80
2023-03-19T22:06:43.250Z,108.10
2023-03-19T22:09:11.462Z,112.80
2023-03-19T22:11:40.887Z,132.30
2023-03-19T22:14:19.803Z,170.70
2023-03-19T22:16:55.427Z,196.60
2023-03-19T22:19:23.948Z,191.00
2023-03-19T22:21:52.100Z,198.40
2023-03-19T22:24:19.978Z,165.60
2023-03-19T22:26:57.771Z,159.50
2023-03-19T22:29:25.905Z,163.20
2023-03-19T22:31:56.052Z,128.00
2023-03-19T22:34:27.818Z,135.70
2023-03-19T22:36:56.131Z,141.60
2023-03-19T22:39:24.093Z,145.20
2023-03-19T22:41:52.154Z,99.20
2023-03-19T22:44:27.517Z,85.00
2023-03-19T22:46:57.828Z,83.10
2023-03-19T22:49:25.911Z,98.50
2023-03-19T22:51:54.477Z,80.40
2023-03-19T22:54:22.708Z,84.70
2023-03-19T22:56:50.718Z,77.70
2023-03-19T22:59:18.765Z,67.80
2023-03-19T23:01:47.851Z,92.00
2023-03-19T23:04:25.467Z,131.50
2023-03-19T23:06:55.468Z,121.60
2023-03-19T23:09:27.136Z,107.90
2023-03-19T23:11:56.465Z,144.40
2023-03-19T23:14:31.803Z,148.60
2023-03-19T23:17:12.046Z,120.60
2023-03-19T23:19:40.027Z,112.90
2023-03-19T23:22:15.664Z,109.80
2023-03-19T23:24:44.917Z,117.50
2023-03-19T23:27:26.381Z,107.30
2023-03-19T23:29:54.741Z,106.80
2023-03-19T23:32:22.916Z,95.00
2023-03-19T23:34:59.519Z,92.90
2023-03-19T23:37:29.502Z,91.70
2023-03-19T23:39:58.028Z,86.10
2023-03-19T23:42:29.631Z,81.20
2023-03-19T23:44:59.779Z,98.00
2023-03-19T23:47:29.154Z,104.60
2023-03-19T23:49:57.704Z,78.60
2023-03-19T23:52:25.930Z,61.40
2023-03-19T23:54:53.966Z,61.30
2023-03-19T23:57:22.689Z,64.60
2023-03-19T23:59:52.229Z,69.50
